Time;durP1;ratioP1;P1;durP2;ratioP2;P2;SDS_P1;SDS_P2;PMS_P1;PMS_P2;Temp;Humidity;BMP_temperature;BMP_pressure;BME280_temperature;BME280_humidity;BME280_pressure;Samples;Min_cycle;Max_cycle;Signal;HPM_P1;HPM_P2
2022/10/22 00:01:57;;;;;;;11.60;6.55;;;16.10;99.90;;;;;;4996718;28;20026;-72
2022/10/22 00:04:22;;;;;;;9.75;6.20;;;16.10;99.90;;;;;;4996537;28;20034;-72
2022/10/22 00:06:48;;;;;;;13.60;6.50;;;16.00;99.90;;;;;;4996429;28;20039;-72
2022/10/22 00:09:14;;;;;;;13.48;5.95;;;16.10;99.90;;;;;;4996311;28;20029;-72
2022/10/22 00:11:41;;;;;;;12.57;6.00;;;16.10;99.90;;;;;;4996082;28;20127;-72
2022/10/22 00:14:07;;;;;;;14.07;6.38;;;16.10;99.90;;;;;;4996100;28;20027;-72
2022/10/22 00:16:32;;;;;;;13.27;6.68;;;16.10;99.90;;;;;;4996052;28;20408;-72
2022/10/22 00:18:58;;;;;;;10.63;6.32;;;16.10;99.90;;;;;;4996126;28;20031;-72
2022/10/22 00:21:24;;;;;;;11.57;5.60;;;16.20;99.90;;;;;;4996041;28;20056;-72
2022/10/22 00:23:50;;;;;;;12.07;6.13;;;16.20;99.90;;;;;;4995864;28;20033;-72
2022/10/22 00:26:16;;;;;;;11.05;6.05;;;16.30;99.90;;;;;;4995959;28;20026;-72
2022/10/22 00:28:41;;;;;;;9.75;5.15;;;16.40;99.90;;;;;;4996137;28;20030;-72
2022/10/22 00:31:07;;;;;;;9.70;5.93;;;16.40;99.90;;;;;;4995964;28;20030;-72
2022/10/22 00:33:33;;;;;;;8.02;5.45;;;16.30;99.90;;;;;;4996166;28;20041;-72
2022/10/22 00:35:59;;;;;;;10.35;5.55;;;16.40;99.90;;;;;;4995924;28;20034;-72
2022/10/22 00:38:24;;;;;;;11.18;5.47;;;16.40;99.90;;;;;;4996222;28;20092;-72
2022/10/22 00:40:50;;;;;;;9.70;6.03;;;16.50;99.90;;;;;;4995707;28;20030;-72
2022/10/22 00:43:17;;;;;;;11.35;5.32;;;16.40;99.90;;;;;;4995687;28;20391;-72
2022/10/22 00:45:44;;;;;;;10.68;6.03;;;16.40;99.90;;;;;;4995486;28;20387;-72
2022/10/22 00:48:13;;;;;;;10.85;5.75;;;16.30;99.90;;;;;;4994973;28;20036;-72
2022/10/22 00:50:43;;;;;;;10.98;5.53;;;16.30;99.90;;;;;;4995678;28;20138;-72
2022/10/22 00:53:15;;;;;;;13.07;5.72;;;16.40;99.90;;;;;;4995615;28;20027;-72
2022/10/22 00:55:44;;;;;;;9.70;5.75;;;16.40;99.90;;;;;;4995562;28;20083;-72
2022/10/22 00:58:10;;;;;;;8.23;4.88;;;16.30;99.90;;;;;;4995486;28;20031;-72
2022/10/22 01:00:36;;;;;;;10.20;6.03;;;16.30;99.90;;;;;;4995433;28;20030;-72
2022/10/22 01:03:02;;;;;;;8.23;4.47;;;16.30;99.90;;;;;;4995254;28;20019;-72
2022/10/22 01:05:31;;;;;;;23.13;14.07;;;16.30;99.90;;;;;;4995359;28;20504;-72
2022/10/22 01:07:58;;;;;;;27.33;17.55;;;16.10;99.90;;;;;;4995298;28;20037;-72
2022/10/22 01:10:52;;;;;;;27.98;18.33;;;15.80;99.90;;;;;;4995221;28;20384;-72
2022/10/22 01:13:42;;;;;;;28.38;19.00;;;15.50;99.90;;;;;;4993938;28;20611;-72
2022/10/22 01:16:18;;;;;;;28.20;18.05;;;15.40;99.90;;;;;;4994827;28;20050;-72
2022/10/22 01:18:54;;;;;;;20.42;14.40;;;15.30;99.90;;;;;;4995265;28;20038;-72
2022/10/22 01:21:30;;;;;;;18.67;7.90;;;15.30;99.90;;;;;;4995094;28;20033;-72
2022/10/22 01:24:17;;;;;;;11.82;6.32;;;15.60;99.90;;;;;;4994896;28;20127;-72
2022/10/22 01:27:13;;;;;;;10.63;5.80;;;15.80;99.90;;;;;;4994609;28;20472;-72
2022/10/22 01:29:39;;;;;;;26.80;17.08;;;15.90;99.90;;;;;;4994962;28;20640;-72
2022/10/22 01:32:14;;;;;;;29.98;19.65;;;15.70;99.90;;;;;;4994790;28;20026;-72
2022/10/22 01:34:45;;;;;;;30.45;20.48;;;15.50;99.90;;;;;;4994904;28;20516;-72
2022/10/22 01:37:13;;;;;;;40.33;21.90;;;15.30;99.90;;;;;;4994331;28;20054;-72
2022/10/22 01:39:41;;;;;;;41.67;22.25;;;15.20;99.90;;;;;;4994762;28;20169;-72
2022/10/22 01:42:06;;;;;;;37.67;22.00;;;15.20;99.90;;;;;;4993145;28;20389;-72
2022/10/22 01:44:35;;;;;;;24.60;14.05;;;15.20;99.90;;;;;;4994204;28;20031;-72
2022/10/22 01:47:06;;;;;;;12.43;8.07;;;15.20;99.90;;;;;;4994527;28;20388;-72
2022/10/22 01:50:13;;;;;;;16.52;7.15;;;15.30;99.90;;;;;;4994408;28;20038;-72
2022/10/22 01:53:17;;;;;;;10.30;5.90;;;15.70;99.90;;;;;;4994315;28;20523;-72
2022/10/22 01:56:04;;;;;;;10.15;6.05;;;15.70;99.90;;;;;;4994413;28;20034;-72
2022/10/22 01:58:36;;;;;;;12.32;6.55;;;15.70;99.90;;;;;;4994176;28;20109;-72
2022/10/22 02:01:30;;;;;;;12.05;5.82;;;15.70;99.90;;;;;;4994484;28;20388;-72
2022/10/22 02:04:27;;;;;;;11.75;6.07;;;15.70;99.90;;;;;;5010011;28;20030;-72
2022/10/22 02:07:00;;;;;;;11.82;6.22;;;15.70;99.90;;;;;;4994165;28;20033;-72
2022/10/22 02:09:28;;;;;;;14.40;5.88;;;15.70;99.90;;;;;;4994001;28;20392;-72
2022/10/22 02:11:55;;;;;;;9.85;6.38;;;15.70;99.90;;;;;;4993503;28;20026;-73
2022/10/22 02:14:24;;;;;;;13.68;6.85;;;15.70;99.90;;;;;;4993943;28;20041;-72
2022/10/22 02:16:50;;;;;;;11.18;7.05;;;15.70;99.90;;;;;;4993654;28;20034;-72
2022/10/22 02:19:35;;;;;;;8.70;5.63;;;15.60;99.90;;;;;;4994247;28;20033;-72
2022/10/22 02:22:02;;;;;;;11.05;5.88;;;15.70;99.90;;;;;;4993874;28;20124;-72
2022/10/22 02:24:28;;;;;;;9.70;5.82;;;15.60;99.90;;;;;;4993827;28;20034;-72
2022/10/22 02:27:38;;;;;;;9.77;5.78;;;15.60;99.90;;;;;;4993950;28;20035;-72
2022/10/22 02:30:06;;;;;;;11.85;6.50;;;15.60;99.90;;;;;;5044059;28;20036;-72
2022/10/22 02:32:45;;;;;;;18.77;9.55;;;15.60;99.90;;;;;;4993631;28;20030;-72
2022/10/22 02:35:16;;;;;;;15.93;8.25;;;15.50;99.90;;;;;;4993956;28;20062;-72
2022/10/22 02:37:43;;;;;;;9.77;5.03;;;15.50;99.90;;;;;;4994404;28;20031;-73
2022/10/22 02:40:09;;;;;;;8.00;4.90;;;15.50;99.90;;;;;;4994195;28;20492;-72
2022/10/22 02:42:36;;;;;;;8.52;5.15;;;15.50;99.90;;;;;;4993783;28;20192;-72
2022/10/22 02:45:03;;;;;;;11.88;4.97;;;15.60;99.90;;;;;;4993763;28;20038;-72
2022/10/22 02:47:28;;;;;;;7.07;4.15;;;15.60;99.90;;;;;;4993794;28;20081;-72
2022/10/22 02:49:54;;;;;;;7.47;4.78;;;15.70;99.90;;;;;;4993525;28;20026;-72
2022/10/22 02:52:20;;;;;;;10.45;5.25;;;15.80;99.90;;;;;;4993292;28;20112;-72
2022/10/22 02:54:45;;;;;;;6.78;4.47;;;15.70;99.90;;;;;;4993514;28;20053;-72
2022/10/22 02:57:11;;;;;;;8.85;4.47;;;15.70;99.90;;;;;;4993605;28;20053;-72
2022/10/22 02:59:36;;;;;;;10.63;4.95;;;16.00;99.90;;;;;;4993637;28;20077;-72
2022/10/22 03:02:02;;;;;;;9.82;4.70;;;15.90;99.90;;;;;;4993249;28;20433;-70
2022/10/22 03:04:28;;;;;;;11.63;5.05;;;15.70;99.90;;;;;;4986884;28;20040;-71
2022/10/22 03:06:53;;;;;;;15.20;5.38;;;15.50;99.90;;;;;;4986995;28;20030;-71
2022/10/22 03:09:19;;;;;;;8.30;4.28;;;15.50;99.90;;;;;;4987401;28;20068;-71
2022/10/22 03:11:45;;;;;;;6.93;3.95;;;15.40;99.90;;;;;;4990814;28;20034;-71
2022/10/22 03:14:11;;;;;;;12.52;4.30;;;15.60;99.90;;;;;;4991318;28;20038;-71
2022/10/22 03:16:37;;;;;;;9.00;4.00;;;15.60;99.90;;;;;;4989715;28;20054;-71
2022/10/22 03:19:03;;;;;;;6.55;3.75;;;15.80;99.90;;;;;;4989120;28;20401;-71
2022/10/22 03:21:36;;;;;;;11.32;4.22;;;15.80;99.90;;;;;;4988585;28;20038;-71
2022/10/22 03:24:08;;;;;;;9.90;4.57;;;15.70;99.90;;;;;;4991542;28;20019;-71
2022/10/22 03:26:34;;;;;;;8.73;4.38;;;15.60;99.90;;;;;;4991777;28;20030;-71
2022/10/22 03:29:00;;;;;;;7.15;4.43;;;15.60;99.90;;;;;;4991783;28;20026;-71
2022/10/22 03:31:26;;;;;;;6.15;3.80;;;15.50;99.90;;;;;;4991443;28;20425;-71
2022/10/22 03:33:51;;;;;;;7.25;4.50;;;15.40;99.90;;;;;;4991222;28;20045;-71
2022/10/22 03:36:17;;;;;;;6.93;3.88;;;15.50;99.90;;;;;;4988381;28;20038;-71
2022/10/22 03:38:43;;;;;;;6.85;3.83;;;15.50;99.90;;;;;;4988741;28;20038;-71
2022/10/22 03:41:09;;;;;;;6.97;3.65;;;15.50;99.90;;;;;;4990706;28;20060;-71
2022/10/22 03:43:36;;;;;;;5.88;3.45;;;15.60;99.90;;;;;;4990986;28;20049;-71
2022/10/22 03:46:02;;;;;;;10.70;4.18;;;15.50;99.90;;;;;;4989786;28;20710;-71
2022/10/22 03:48:28;;;;;;;5.85;3.50;;;15.60;99.90;;;;;;4988495;28;20269;-71
2022/10/22 03:50:53;;;;;;;8.23;3.13;;;15.60;99.90;;;;;;4989013;28;20403;-71
2022/10/22 03:53:19;;;;;;;6.57;3.90;;;15.60;99.90;;;;;;4991668;28;20460;-71
2022/10/22 03:55:45;;;;;;;8.20;4.40;;;15.60;99.90;;;;;;4991501;28;20041;-71
2022/10/22 03:58:10;;;;;;;8.85;4.40;;;15.50;99.90;;;;;;4989783;28;20031;-71
2022/10/22 04:00:36;;;;;;;7.65;3.95;;;15.50;99.90;;;;;;4988131;28;20046;-71
2022/10/22 04:03:02;;;;;;;7.55;4.05;;;15.30;99.90;;;;;;4987625;28;20030;-71
2022/10/22 04:05:27;;;;;;;8.65;4.30;;;15.40;99.90;;;;;;4987857;28;20037;-71
2022/10/22 04:07:53;;;;;;;9.65;4.75;;;15.30;99.90;;;;;;4988163;28;20034;-71
2022/10/22 04:10:19;;;;;;;6.85;4.63;;;15.30;99.90;;;;;;4988381;28;20477;-70
2022/10/22 04:12:47;;;;;;;8.55;4.95;;;15.40;99.90;;;;;;4987851;28;20303;-71
2022/10/22 04:15:13;;;;;;;16.02;10.63;;;15.50;99.90;;;;;;4987750;28;20042;-71
2022/10/22 04:17:38;;;;;;;17.38;9.73;;;15.30;99.90;;;;;;4987478;28;20393;-71
2022/10/22 04:20:05;;;;;;;19.42;9.38;;;15.20;99.90;;;;;;4987715;28;20030;-71
2022/10/22 04:22:33;;;;;;;7.63;4.82;;;15.20;99.90;;;;;;4987761;28;20023;-71
2022/10/22 04:24:59;;;;;;;7.78;4.85;;;15.10;99.90;;;;;;4987627;28;20388;-72
2022/10/22 04:27:27;;;;;;;9.95;4.63;;;15.20;99.90;;;;;;4987937;28;20034;-71
2022/10/22 04:29:53;;;;;;;9.05;4.32;;;15.30;99.90;;;;;;4987606;28;20038;-71
2022/10/22 04:32:19;;;;;;;8.88;4.43;;;15.40;99.90;;;;;;4987644;28;20110;-71
2022/10/22 04:34:44;;;;;;;7.35;3.90;;;15.30;99.90;;;;;;4987436;28;20026;-71
2022/10/22 04:37:10;;;;;;;7.65;4.25;;;15.30;99.90;;;;;;4987442;28;20037;-71
2022/10/22 04:39:35;;;;;;;9.43;4.57;;;15.30;99.90;;;;;;4987781;28;20575;-71
2022/10/22 04:42:02;;;;;;;6.70;3.72;;;15.30;99.90;;;;;;4987452;28;20416;-71
2022/10/22 04:44:28;;;;;;;7.07;4.40;;;15.30;99.90;;;;;;4987182;28;20026;-71
2022/10/22 04:46:53;;;;;;;7.15;4.28;;;15.30;99.90;;;;;;4987655;28;20038;-71
2022/10/22 04:49:19;;;;;;;8.02;4.43;;;15.40;99.90;;;;;;4987399;28;20062;-71
2022/10/22 04:51:45;;;;;;;7.65;4.05;;;15.40;99.90;;;;;;4987374;28;20462;-71
2022/10/22 04:54:10;;;;;;;5.88;3.67;;;15.40;99.90;;;;;;4986971;28;20191;-71
2022/10/22 04:56:36;;;;;;;9.50;4.13;;;15.40;99.90;;;;;;4987382;28;20030;-71
2022/10/22 04:59:06;;;;;;;7.65;4.07;;;15.30;99.90;;;;;;4987272;28;20228;-71
2022/10/22 05:01:37;;;;;;;6.03;3.83;;;15.40;99.90;;;;;;4987002;28;20102;-71
2022/10/22 05:04:05;;;;;;;12.60;7.13;;;15.40;99.90;;;;;;4987125;28;20026;-71
2022/10/22 05:06:33;;;;;;;11.10;5.75;;;15.30;99.90;;;;;;4986943;28;20062;-71
2022/10/22 05:09:02;;;;;;;16.67;8.05;;;15.30;99.90;;;;;;4987265;28;20040;-71
2022/10/22 05:11:32;;;;;;;15.40;9.60;;;15.30;99.90;;;;;;4986772;28;20105;-72
2022/10/22 05:13:59;;;;;;;13.10;6.45;;;15.20;99.90;;;;;;4986848;28;20041;-71
2022/10/22 05:16:24;;;;;;;6.10;3.30;;;15.20;99.90;;;;;;4986516;28;20482;-71
2022/10/22 05:18:50;;;;;;;6.57;3.67;;;15.20;99.90;;;;;;4986643;28;20058;-71
2022/10/22 05:21:18;;;;;;;6.75;3.30;;;15.30;99.90;;;;;;4986490;28;20105;-71
2022/10/22 05:23:46;;;;;;;9.75;4.25;;;15.30;99.90;;;;;;4986456;28;20026;-71
2022/10/22 05:26:13;;;;;;;7.35;3.50;;;15.40;99.90;;;;;;4986791;28;20035;-70
2022/10/22 05:28:39;;;;;;;13.48;4.15;;;15.40;99.90;;;;;;4986808;28;20489;-71
2022/10/22 05:31:07;;;;;;;10.05;5.65;;;15.50;99.90;;;;;;4986546;28;20066;-71
2022/10/22 05:33:33;;;;;;;12.88;6.68;;;15.50;99.90;;;;;;4985548;28;20523;-71
2022/10/22 05:36:00;;;;;;;13.43;7.70;;;15.40;99.90;;;;;;4986442;28;20026;-71
2022/10/22 05:38:26;;;;;;;13.23;7.35;;;15.30;99.90;;;;;;4986253;28;20030;-71
2022/10/22 05:41:09;;;;;;;7.25;4.57;;;15.20;99.90;;;;;;4986277;28;20026;-71
2022/10/22 05:43:35;;;;;;;12.88;7.55;;;15.20;99.90;;;;;;4985774;28;20153;-71
2022/10/22 05:46:09;;;;;;;11.43;7.07;;;15.20;99.90;;;;;;4985870;28;20487;-71
2022/10/22 05:48:35;;;;;;;15.45;9.70;;;15.20;99.90;;;;;;4986098;28;20026;-71
2022/10/22 05:51:11;;;;;;;16.00;9.55;;;15.20;99.90;;;;;;4986192;28;20038;-71
2022/10/22 05:53:39;;;;;;;14.52;9.15;;;15.10;99.90;;;;;;4985744;28;20034;-71
2022/10/22 05:56:11;;;;;;;12.73;8.30;;;15.20;99.90;;;;;;4986192;28;20038;-71
2022/10/22 05:58:37;;;;;;;12.45;7.88;;;15.10;99.90;;;;;;4985943;28;20057;-71
2022/10/22 06:01:05;;;;;;;13.65;7.15;;;15.10;99.90;;;;;;4986087;28;20108;-71
2022/10/22 06:03:31;;;;;;;10.30;6.63;;;15.10;99.90;;;;;;4985696;28;20110;-71
2022/10/22 06:06:34;;;;;;;8.65;5.60;;;15.00;99.90;;;;;;4985484;28;20172;-71
2022/10/22 06:09:26;;;;;;;11.00;7.22;;;15.10;99.90;;;;;;4985950;28;20077;-71
2022/10/22 06:11:52;;;;;;;92.80;17.10;;;15.10;99.90;;;;;;4985624;28;20031;-71
2022/10/22 06:14:19;;;;;;;27.83;10.85;;;15.10;99.90;;;;;;4985652;28;20496;-71
2022/10/22 06:16:45;;;;;;;265.65;29.75;;;15.00;99.90;;;;;;4985023;28;20451;-71
2022/10/22 06:19:12;;;;;;;39.67;12.55;;;15.00;99.90;;;;;;4985238;28;20031;-71
2022/10/22 06:21:38;;;;;;;17.80;9.40;;;15.00;99.90;;;;;;4985112;28;20042;-71
2022/10/22 06:24:04;;;;;;;11.48;7.75;;;15.00;99.90;;;;;;4985349;28;20406;-71
2022/10/22 06:26:30;;;;;;;16.58;10.25;;;15.00;99.90;;;;;;4985273;28;20026;-71
2022/10/22 06:28:57;;;;;;;14.40;9.02;;;15.00;99.90;;;;;;4985029;28;20045;-71
2022/10/22 06:31:23;;;;;;;13.88;8.93;;;15.00;99.90;;;;;;4985353;28;20031;-71
2022/10/22 06:33:49;;;;;;;13.50;8.82;;;15.00;99.90;;;;;;4985091;28;20165;-71
2022/10/22 06:36:17;;;;;;;16.15;9.63;;;15.00;99.90;;;;;;4985207;28;20170;-71
2022/10/22 06:38:43;;;;;;;72.43;15.63;;;15.00;99.90;;;;;;4985303;28;20041;-71
2022/10/22 06:41:11;;;;;;;13.60;8.73;;;15.00;99.90;;;;;;4984947;28;20026;-71
2022/10/22 06:43:37;;;;;;;13.55;9.68;;;14.90;99.90;;;;;;4985325;28;20026;-71
2022/10/22 06:46:06;;;;;;;14.90;9.73;;;14.90;99.90;;;;;;4984664;28;20022;-71
2022/10/22 06:48:32;;;;;;;13.30;8.57;;;14.90;99.90;;;;;;4985660;28;20139;-71
2022/10/22 06:51:07;;;;;;;15.85;9.55;;;14.90;99.90;;;;;;4984963;28;20500;-71
2022/10/22 06:53:33;;;;;;;12.68;7.95;;;14.90;99.90;;;;;;4984773;28;20030;-71
2022/10/22 06:56:04;;;;;;;10.23;7.05;;;14.90;99.90;;;;;;4984943;28;20037;-71
2022/10/22 06:58:30;;;;;;;8.95;6.22;;;14.90;99.90;;;;;;4984839;28;20027;-71
2022/10/22 07:01:13;;;;;;;17.73;11.38;;;15.00;99.90;;;;;;4985764;28;20034;-72
2022/10/22 07:03:39;;;;;;;16.52;10.07;;;15.00;99.90;;;;;;4987448;28;20485;-71
2022/10/22 07:06:08;;;;;;;11.13;7.70;;;15.00;99.90;;;;;;4987841;28;20022;-71
2022/10/22 07:08:35;;;;;;;14.23;9.38;;;14.90;99.90;;;;;;4987746;28;20030;-71
2022/10/22 07:11:17;;;;;;;12.15;7.95;;;14.90;99.90;;;;;;4987702;28;20030;-71
2022/10/22 07:13:44;;;;;;;11.25;6.97;;;14.90;99.90;;;;;;4987306;28;20065;-71
2022/10/22 07:16:11;;;;;;;8.98;5.68;;;14.90;99.90;;;;;;4987728;28;20336;-71
2022/10/22 07:18:38;;;;;;;8.63;5.38;;;14.80;99.90;;;;;;4987865;28;20034;-71
2022/10/22 07:21:04;;;;;;;6.10;4.45;;;14.80;99.90;;;;;;4987828;28;20057;-71
2022/10/22 07:23:30;;;;;;;15.18;5.65;;;14.90;99.90;;;;;;4987796;28;20107;-71
2022/10/22 07:25:56;;;;;;;5.35;3.65;;;14.80;99.90;;;;;;4987856;28;20030;-71
2022/10/22 07:28:22;;;;;;;4.60;2.80;;;14.60;99.90;;;;;;4987480;28;20035;-71
2022/10/22 07:30:48;;;;;;;4.10;2.30;;;14.50;99.90;;;;;;4987930;28;20489;-71
2022/10/22 07:33:14;;;;;;;3.80;1.65;;;14.50;99.90;;;;;;4987344;28;20085;-71
2022/10/22 07:35:40;;;;;;;3.00;1.60;;;14.60;99.90;;;;;;4987756;28;20069;-71
2022/10/22 07:38:07;;;;;;;4.38;2.13;;;14.60;99.90;;;;;;4987695;28;20460;-71
2022/10/22 07:40:33;;;;;;;3.50;1.77;;;14.60;99.90;;;;;;4987650;28;20027;-71
2022/10/22 07:42:59;;;;;;;3.97;1.40;;;14.60;99.90;;;;;;4987425;28;20033;-71
2022/10/22 07:45:25;;;;;;;2.60;1.30;;;14.60;99.90;;;;;;4987402;28;20026;-71
2022/10/22 07:47:50;;;;;;;2.72;1.15;;;14.70;99.90;;;;;;4987431;28;20023;-71
2022/10/22 07:50:17;;;;;;;2.72;1.40;;;14.80;99.90;;;;;;4987706;28;20054;-71
2022/10/22 07:52:43;;;;;;;4.47;2.17;;;14.80;99.90;;;;;;4987262;28;20120;-71
2022/10/22 07:55:09;;;;;;;2.97;1.73;;;14.70;99.90;;;;;;4987628;28;20054;-71
2022/10/22 07:57:38;;;;;;;3.55;2.03;;;14.70;99.90;;;;;;4991229;28;20036;-71
2022/10/22 08:00:05;;;;;;;5.05;2.58;;;14.80;99.90;;;;;;4990949;28;20031;-71
2022/10/22 08:02:31;;;;;;;3.75;2.50;;;14.70;99.90;;;;;;4990758;28;20453;-71
2022/10/22 08:04:58;;;;;;;6.15;2.20;;;14.70;99.90;;;;;;4990706;28;20018;-71
2022/10/22 08:07:24;;;;;;;5.22;2.15;;;14.80;99.90;;;;;;4990865;28;20022;-71
2022/10/22 08:09:49;;;;;;;4.93;2.83;;;14.80;99.90;;;;;;4990794;28;20040;-71
2022/10/22 08:12:15;;;;;;;3.75;1.90;;;14.70;99.90;;;;;;4990870;28;20034;-71
2022/10/22 08:14:41;;;;;;;3.53;1.83;;;14.70;99.90;;;;;;4990912;28;20093;-71
2022/10/22 08:17:06;;;;;;;4.80;2.15;;;14.60;99.90;;;;;;4990481;28;20042;-71
2022/10/22 08:19:34;;;;;;;3.55;2.00;;;14.70;99.90;;;;;;4990892;28;20026;-71
2022/10/22 08:22:00;;;;;;;4.07;1.92;;;14.70;99.90;;;;;;4990517;28;20440;-71
2022/10/22 08:24:26;;;;;;;2.78;1.65;;;14.60;99.90;;;;;;4990509;28;20041;-71
2022/10/22 08:26:54;;;;;;;2.53;1.42;;;14.60;99.90;;;;;;4990192;28;20037;-71
2022/10/22 08:29:22;;;;;;;3.63;1.50;;;14.60;99.90;;;;;;4990182;28;20027;-71
2022/10/22 08:31:48;;;;;;;4.20;1.98;;;14.50;99.90;;;;;;4990132;28;20196;-71
2022/10/22 08:34:14;;;;;;;3.65;1.90;;;14.60;99.90;;;;;;4990869;28;20041;-71
2022/10/22 08:36:39;;;;;;;2.38;1.25;;;14.60;99.90;;;;;;4990541;28;20035;-71
2022/10/22 08:39:05;;;;;;;3.70;1.42;;;14.60;99.90;;;;;;4990404;28;20098;-71
2022/10/22 08:41:43;;;;;;;2.55;1.30;;;14.50;99.90;;;;;;4990008;28;20031;-71
2022/10/22 08:44:14;;;;;;;2.22;1.00;;;14.60;99.90;;;;;;4990039;28;20106;-71
2022/10/22 08:46:43;;;;;;;1.90;0.98;;;14.50;99.90;;;;;;4990586;28;20022;-71
2022/10/22 08:49:36;;;;;;;2.75;1.52;;;14.60;99.90;;;;;;4990200;28;20073;-71
2022/10/22 08:52:02;;;;;;;3.83;1.30;;;14.60;99.90;;;;;;4989214;28;20043;-71
2022/10/22 08:54:35;;;;;;;2.33;1.15;;;14.50;99.90;;;;;;4989878;28;20038;-71
2022/10/22 08:57:07;;;;;;;4.78;1.98;;;14.60;99.90;;;;;;4989937;28;20060;-71
2022/10/22 08:59:48;;;;;;;1.83;0.95;;;14.60;99.90;;;;;;4990040;28;20058;-71
2022/10/22 09:02:32;;;;;;;2.17;1.15;;;14.50;99.90;;;;;;4989979;28;20034;-71
2022/10/22 09:05:22;;;;;;;6.37;3.30;;;14.60;99.90;;;;;;4989912;28;20085;-71
2022/10/22 09:07:49;;;;;;;3.42;1.70;;;14.50;99.90;;;;;;4989089;28;20065;-72
2022/10/22 09:10:18;;;;;;;156.55;102.70;;;14.50;99.90;;;;;;4989857;28;20037;-71
2022/10/22 09:12:46;;;;;;;34.85;22.33;;;14.60;99.90;;;;;;4989988;28;20027;-71
2022/10/22 09:15:17;;;;;;;7.60;3.72;;;14.70;99.90;;;;;;4989714;28;20038;-72
2022/10/22 09:18:20;;;;;;;4.88;1.95;;;14.70;99.90;;;;;;4989923;28;20134;-71
2022/10/22 09:20:52;;;;;;;1.60;1.02;;;14.50;99.90;;;;;;4989787;28;20040;-71
2022/10/22 09:23:32;;;;;;;1.95;0.98;;;14.50;99.90;;;;;;4989627;28;20554;-71
2022/10/22 09:25:59;;;;;;;4.22;2.22;;;14.50;99.90;;;;;;4989402;28;20054;-71
2022/10/22 09:28:25;;;;;;;7.15;5.82;;;14.60;99.90;;;;;;4989233;28;20038;-71
2022/10/22 09:30:50;;;;;;;3.53;2.05;;;14.80;99.90;;;;;;4989187;28;20035;-71
2022/10/22 09:33:24;;;;;;;4.43;1.50;;;14.60;99.90;;;;;;4988928;28;20496;-71
2022/10/22 09:35:51;;;;;;;1.93;0.70;;;14.50;99.90;;;;;;4989498;28;20084;-71
2022/10/22 09:38:19;;;;;;;1.67;0.70;;;14.40;99.90;;;;;;4989039;28;20767;-71
2022/10/22 09:40:51;;;;;;;0.93;0.63;;;14.50;99.90;;;;;;4988979;28;20045;-71
2022/10/22 09:43:17;;;;;;;1.83;0.88;;;14.60;99.90;;;;;;4988748;28;20022;-71
2022/10/22 09:45:44;;;;;;;3.40;0.82;;;14.70;99.90;;;;;;4989354;28;20105;-72
2022/10/22 09:48:27;;;;;;;2.90;0.93;;;14.70;99.90;;;;;;4989176;28;20022;-72
2022/10/22 09:51:19;;;;;;;4.30;1.48;;;14.60;99.90;;;;;;4989268;28;20110;-71
2022/10/22 09:54:00;;;;;;;2.17;0.60;;;14.60;99.90;;;;;;4988794;28;20481;-71
2022/10/22 09:56:28;;;;;;;1.88;0.50;;;14.40;99.90;;;;;;4989173;28;20030;-71
2022/10/22 09:58:57;;;;;;;1.50;0.80;;;14.50;99.90;;;;;;4989008;28;20030;-71
2022/10/22 10:01:32;;;;;;;0.77;0.57;;;14.40;99.90;;;;;;4988787;28;20026;-71
2022/10/22 10:04:07;;;;;;;1.35;0.52;;;14.40;99.90;;;;;;4988857;28;20087;-71
2022/10/22 10:06:33;;;;;;;1.70;0.65;;;14.40;99.90;;;;;;4989112;28;20030;-71
2022/10/22 10:09:05;;;;;;;1.80;0.68;;;14.40;99.90;;;;;;4989038;28;20027;-71
2022/10/22 10:11:58;;;;;;;2.03;0.57;;;14.50;99.90;;;;;;4989062;28;20121;-71
2022/10/22 10:14:29;;;;;;;1.92;0.60;;;14.50;99.90;;;;;;4988276;28;20022;-71
2022/10/22 10:17:10;;;;;;;1.75;0.50;;;14.50;99.90;;;;;;4988332;28;20057;-71
2022/10/22 10:19:59;;;;;;;1.58;0.50;;;14.40;99.90;;;;;;4988282;28;20457;-71
2022/10/22 10:22:49;;;;;;;2.17;0.50;;;14.40;99.90;;;;;;4988765;28;20026;-71
2022/10/22 10:25:44;;;;;;;4.55;1.60;;;14.40;99.90;;;;;;4988458;28;20041;-71
2022/10/22 10:28:17;;;;;;;3.75;0.90;;;14.40;99.90;;;;;;4987345;28;20142;-71
2022/10/22 10:31:13;;;;;;;2.90;0.80;;;14.50;99.90;;;;;;4988653;28;20646;-72
2022/10/22 10:34:00;;;;;;;1.13;0.40;;;14.60;99.90;;;;;;4988461;28;20101;-71
2022/10/22 10:37:21;;;;;;;2.75;0.77;;;14.40;99.90;;;;;;4988514;28;20040;-72
2022/10/22 10:40:22;;;;;;;1.83;0.68;;;14.50;99.90;;;;;;4986714;28;20392;-71
2022/10/22 10:42:59;;;;;;;1.48;0.77;;;14.50;99.90;;;;;;4987969;28;20069;-71
2022/10/22 10:45:43;;;;;;;2.97;0.65;;;14.40;99.90;;;;;;4988498;28;20034;-71
2022/10/22 10:48:30;;;;;;;2.40;0.52;;;14.30;99.90;;;;;;4988484;28;20077;-72
2022/10/22 10:50:56;;;;;;;1.15;0.65;;;14.20;99.90;;;;;;4988558;28;20109;-71
2022/10/22 10:53:39;;;;;;;1.85;0.60;;;14.20;99.90;;;;;;4988459;28;20113;-71
2022/10/22 10:56:26;;;;;;;0.73;0.50;;;14.10;99.90;;;;;;4988286;28;20093;-71
2022/10/22 10:59:13;;;;;;;2.63;0.73;;;14.10;99.90;;;;;;4988312;28;20374;-71
2022/10/22 11:01:47;;;;;;;3.65;1.00;;;14.10;99.90;;;;;;4988532;28;20034;-72
2022/10/22 11:04:27;;;;;;;2.25;0.65;;;14.10;99.90;;;;;;4988153;28;20485;-72
2022/10/22 11:06:59;;;;;;;1.50;0.55;;;14.10;99.90;;;;;;4988041;28;20477;-71
2022/10/22 11:09:33;;;;;;;2.30;0.90;;;14.10;99.90;;;;;;4987764;28;20109;-71
2022/10/22 11:12:04;;;;;;;3.28;0.80;;;14.10;99.90;;;;;;4987801;28;20501;-71
2022/10/22 11:14:51;;;;;;;3.63;1.58;;;14.20;99.90;;;;;;5003028;28;20351;-71
2022/10/22 11:17:19;;;;;;;4.53;1.77;;;14.30;99.90;;;;;;4988007;28;20140;-72
2022/10/22 11:20:06;;;;;;;3.50;1.50;;;14.30;99.90;;;;;;4987890;28;20461;-71
2022/10/22 11:22:41;;;;;;;2.20;1.00;;;14.30;99.90;;;;;;4988158;28;20026;-71
2022/10/22 11:25:27;;;;;;;2.97;0.90;;;14.30;99.90;;;;;;4988350;28;20114;-71
2022/10/22 11:28:01;;;;;;;1.98;0.70;;;14.00;99.90;;;;;;5003192;28;20061;-71
2022/10/22 11:30:32;;;;;;;1.73;0.80;;;14.10;99.90;;;;;;4988158;28;20030;-71
2022/10/22 11:33:05;;;;;;;1.65;0.73;;;14.20;99.90;;;;;;4991326;28;20393;-71
2022/10/22 11:35:34;;;;;;;1.25;0.50;;;14.30;99.90;;;;;;4992139;28;20499;-71
2022/10/22 11:38:03;;;;;;;2.65;0.82;;;14.30;99.90;;;;;;4992213;28;20028;-71
2022/10/22 11:40:33;;;;;;;2.38;0.90;;;14.30;99.90;;;;;;4992730;28;20054;-71
2022/10/22 11:43:05;;;;;;;1.88;0.93;;;14.40;99.90;;;;;;4992196;28;20014;-71
2022/10/22 11:45:38;;;;;;;2.38;0.82;;;14.60;99.90;;;;;;4991162;28;20026;-71
2022/10/22 11:48:10;;;;;;;3.72;0.65;;;14.80;99.90;;;;;;4991463;28;20034;-71
2022/10/22 11:50:42;;;;;;;2.28;0.63;;;14.60;99.90;;;;;;4991358;28;20401;-71
2022/10/22 11:53:14;;;;;;;3.30;0.40;;;14.70;99.90;;;;;;4991131;28;20037;-71
2022/10/22 11:55:46;;;;;;;1.00;0.60;;;14.80;99.90;;;;;;4991416;28;20038;-71
2022/10/22 11:58:37;;;;;;;0.68;0.35;;;14.90;99.90;;;;;;4991166;28;20441;-71
2022/10/22 12:01:06;;;;;;;1.40;0.40;;;14.80;99.90;;;;;;4991208;28;20038;-71
2022/10/22 12:03:32;;;;;;;11.45;5.93;;;14.90;99.90;;;;;;4990998;28;20552;-71
2022/10/22 12:06:14;;;;;;;11.48;6.47;;;15.10;99.90;;;;;;4990907;28;20034;-71
2022/10/22 12:08:51;;;;;;;9.77;4.97;;;15.20;99.90;;;;;;4991460;28;20053;-71
2022/10/22 12:11:40;;;;;;;28.95;14.95;;;15.30;99.90;;;;;;4991203;28;20031;-71
2022/10/22 12:14:26;;;;;;;111.10;57.70;;;15.40;99.90;;;;;;4991021;28;20034;-71
2022/10/22 12:16:55;;;;;;;5.78;3.25;;;15.50;99.90;;;;;;4990932;28;20046;-71
2022/10/22 12:19:34;;;;;;;5.22;2.10;;;15.40;99.90;;;;;;4991386;28;20504;-71
2022/10/22 12:22:09;;;;;;;6.25;3.20;;;15.50;99.90;;;;;;4991065;28;20032;-71
2022/10/22 12:24:41;;;;;;;4.22;1.85;;;15.60;99.90;;;;;;4991030;28;20030;-71
2022/10/22 12:27:24;;;;;;;25.02;12.77;;;15.70;99.90;;;;;;4990868;28;20039;-71
2022/10/22 12:29:55;;;;;;;80.22;39.47;;;15.80;99.90;;;;;;4991044;28;20101;-71
2022/10/22 12:32:28;;;;;;;169.02;96.32;;;15.80;99.90;;;;;;4990732;28;20034;-71
2022/10/22 12:34:54;;;;;;;100.00;55.78;;;15.90;99.90;;;;;;4990847;28;20489;-71
2022/10/22 12:37:20;;;;;;;239.90;134.00;;;16.00;99.90;;;;;;4990518;28;20080;-71
2022/10/22 12:39:45;;;;;;;152.45;86.38;;;15.90;99.90;;;;;;4989898;28;20030;-71
2022/10/22 12:42:16;;;;;;;48.97;25.42;;;15.80;99.90;;;;;;4989151;28;20030;-71
2022/10/22 12:44:45;;;;;;;58.95;29.67;;;15.90;99.90;;;;;;4990297;28;20519;-71
2022/10/22 12:47:17;;;;;;;161.02;83.75;;;15.90;99.90;;;;;;4989974;28;20381;-71
2022/10/22 12:49:48;;;;;;;89.45;50.25;;;16.00;99.90;;;;;;4990401;28;20034;-71
2022/10/22 12:52:19;;;;;;;110.50;54.13;;;15.90;99.90;;;;;;4989863;28;20488;-71
2022/10/22 12:54:47;;;;;;;178.20;91.13;;;15.90;99.90;;;;;;4990541;28;20018;-71
2022/10/22 12:57:16;;;;;;;138.57;73.25;;;15.70;99.90;;;;;;4990450;28;20035;-71
2022/10/22 12:59:45;;;;;;;81.97;40.05;;;15.70;99.90;;;;;;4990256;28;20030;-71
2022/10/22 13:02:26;;;;;;;124.63;57.85;;;15.90;99.90;;;;;;4990070;28;20030;-71